createdAt,value
2018-04-10T00:02:01.415Z,12.67
2018-04-10T00:04:28.117Z,10.97
2018-04-10T00:06:54.761Z,13.27
2018-04-10T00:09:22.595Z,12.00
2018-04-10T00:11:49.198Z,13.17
2018-04-10T00:14:15.882Z,10.20
2018-04-10T00:16:42.553Z,9.13
2018-04-10T00:19:09.347Z,11.83
2018-04-10T00:21:36.038Z,8.70
2018-04-10T00:24:02.711Z,9.23
2018-04-10T00:26:29.335Z,12.20
2018-04-10T00:29:00.031Z,8.17
2018-04-10T00:31:26.664Z,9.63
2018-04-10T00:33:53.162Z,8.60
2018-04-10T00:36:19.839Z,12.53
2018-04-10T00:38:49.851Z,9.53
2018-04-10T00:41:16.496Z,14.10
2018-04-10T00:43:43.231Z,10.17
2018-04-10T00:46:09.975Z,6.60
2018-04-10T00:48:42.914Z,12.00
2018-04-10T00:51:09.671Z,11.40
2018-04-10T00:53:36.218Z,12.23
2018-04-10T00:56:02.754Z,16.03
2018-04-10T00:58:29.436Z,18.37
2018-04-10T01:00:56.033Z,19.37
2018-04-10T01:03:22.760Z,18.20
2018-04-10T01:05:49.412Z,18.60
2018-04-10T01:08:16.172Z,14.83
2018-04-10T01:10:42.834Z,10.70
2018-04-10T01:13:09.559Z,9.23
2018-04-10T01:15:36.066Z,8.87
2018-04-10T01:18:02.710Z,9.07
2018-04-10T01:20:29.320Z,6.10
2018-04-10T01:22:55.980Z,8.80
2018-04-10T01:25:22.638Z,7.70
2018-04-10T01:27:49.286Z,5.90
2018-04-10T01:30:15.891Z,5.20
2018-04-10T01:32:42.407Z,6.77
2018-04-10T01:35:09.533Z,5.67
2018-04-10T01:37:36.176Z,6.20
2018-04-10T01:40:02.846Z,7.77
2018-04-10T01:42:29.547Z,5.10
2018-04-10T01:44:56.307Z,7.00
2018-04-10T01:47:23.055Z,9.10
2018-04-10T01:50:01.408Z,7.47
2018-04-10T01:52:28.296Z,8.30
2018-04-10T01:54:55.034Z,8.03
2018-04-10T01:57:21.800Z,6.77
2018-04-10T01:59:51.623Z,6.30
2018-04-10T02:02:18.366Z,7.97
2018-04-10T02:04:45.035Z,8.60
2018-04-10T02:07:11.675Z,8.33
2018-04-10T02:09:44.454Z,8.63
2018-04-10T02:12:11.191Z,8.83
2018-04-10T02:14:37.943Z,9.43
2018-04-10T02:17:04.692Z,8.10
2018-04-10T02:19:32.367Z,6.53
2018-04-10T02:21:59.014Z,7.63
2018-04-10T02:24:25.713Z,6.80
2018-04-10T02:26:52.470Z,5.03
2018-04-10T02:29:27.131Z,8.90
2018-04-10T02:31:53.819Z,4.97
2018-04-10T02:34:20.291Z,5.63
2018-04-10T02:36:46.871Z,5.47
2018-04-10T02:39:14.711Z,8.70
2018-04-10T02:41:41.432Z,6.50
2018-04-10T02:44:08.153Z,7.27
2018-04-10T02:46:34.727Z,8.20
2018-04-10T02:49:02.598Z,8.20
2018-04-10T02:51:29.284Z,7.37
2018-04-10T02:53:55.960Z,8.33
2018-04-10T02:56:22.599Z,9.03
2018-04-10T02:58:50.422Z,7.37
2018-04-10T03:01:17.151Z,5.27
2018-04-10T03:03:43.914Z,8.10
2018-04-10T03:06:10.587Z,9.83
2018-04-10T03:08:41.272Z,8.03
2018-04-10T03:11:07.915Z,8.20
2018-04-10T03:13:34.598Z,13.13
2018-04-10T03:16:01.122Z,13.17
2018-04-10T03:18:31.136Z,6.97
2018-04-10T03:20:57.662Z,8.70
2018-04-10T03:23:24.263Z,8.33
2018-04-10T03:25:50.843Z,17.20
2018-04-10T03:28:19.406Z,15.70
2018-04-10T03:30:45.873Z,14.77
2018-04-10T03:33:12.443Z,11.50
2018-04-10T03:35:39.011Z,9.50
2018-04-10T03:38:08.583Z,10.57
2018-04-10T03:40:35.422Z,12.43
2018-04-10T03:43:01.983Z,7.00
2018-04-10T03:45:28.511Z,9.47
2018-04-10T03:47:55.226Z,8.77
2018-04-10T03:50:21.812Z,8.13
2018-04-10T03:52:48.416Z,7.77
2018-04-10T03:55:15.044Z,8.60
2018-04-10T03:57:41.707Z,5.93
2018-04-10T04:00:09.440Z,9.77
2018-04-10T04:02:36.045Z,8.77
2018-04-10T04:05:02.559Z,13.93
2018-04-10T04:07:29.225Z,13.20
2018-04-10T04:09:57.080Z,14.40
2018-04-10T04:12:23.880Z,11.93
2018-04-10T04:14:50.510Z,12.13
2018-04-10T04:17:29.094Z,15.87
2018-04-10T04:22:50.490Z,25.17
2018-04-10T04:25:17.227Z,25.07
2018-04-10T04:27:43.872Z,37.53
2018-04-10T04:30:10.763Z,35.53
2018-04-10T04:32:37.468Z,31.97
2018-04-10T04:35:04.127Z,35.33
2018-04-10T04:37:30.639Z,37.07
2018-04-10T04:40:04.659Z,25.00
2018-04-10T04:42:31.391Z,33.27
2018-04-10T04:44:58.119Z,31.23
2018-04-10T04:47:24.767Z,32.80
2018-04-10T04:49:51.435Z,29.90
2018-04-10T04:52:18.135Z,29.23
2018-04-10T04:54:44.889Z,32.17
2018-04-10T04:57:11.756Z,34.63
2018-04-10T04:59:38.717Z,29.27
2018-04-10T05:02:05.288Z,29.63
2018-04-10T05:04:32.084Z,34.17
2018-04-10T05:06:58.877Z,30.80
2018-04-10T05:09:25.808Z,31.43
2018-04-10T05:11:52.410Z,30.77
2018-04-10T05:14:19.151Z,28.30
2018-04-10T05:16:45.809Z,30.97
2018-04-10T05:19:18.872Z,30.97
2018-04-10T05:21:45.637Z,28.70
2018-04-10T05:24:12.360Z,34.73
2018-04-10T05:26:39.118Z,38.23
2018-04-10T05:29:11.405Z,53.47
2018-04-10T05:31:38.072Z,40.23
2018-04-10T05:34:05.020Z,51.73
2018-04-10T05:36:31.707Z,37.37
2018-04-10T05:39:02.083Z,41.50
2018-04-10T05:41:28.706Z,36.43
2018-04-10T05:43:55.373Z,32.10
2018-04-10T05:46:22.430Z,38.43
2018-04-10T05:48:50.120Z,43.73
2018-04-10T05:51:16.867Z,41.53
2018-04-10T05:53:43.507Z,37.30
2018-04-10T05:56:10.264Z,38.57
2018-04-10T05:58:48.422Z,36.93
2018-04-10T06:01:15.147Z,31.00
2018-04-10T06:03:41.851Z,32.67
2018-04-10T06:06:08.558Z,30.17
2018-04-10T06:08:38.783Z,30.70
2018-04-10T06:11:05.424Z,31.80
2018-04-10T06:13:32.097Z,28.30
2018-04-10T06:15:58.845Z,32.83
2018-04-10T06:18:32.936Z,31.97
2018-04-10T06:20:59.751Z,31.70
2018-04-10T06:23:26.393Z,29.83
2018-04-10T06:25:53.067Z,25.50
2018-04-10T06:28:25.363Z,27.10
2018-04-10T06:30:52.139Z,22.77
2018-04-10T06:33:18.863Z,30.37
2018-04-10T06:35:45.516Z,24.17
2018-04-10T06:38:17.032Z,25.40
2018-04-10T06:40:43.909Z,25.40
2018-04-10T06:43:10.587Z,21.90
2018-04-10T06:45:37.142Z,22.23
2018-04-10T06:48:07.590Z,21.37
2018-04-10T06:50:34.271Z,21.43
2018-04-10T06:53:01.153Z,21.57
2018-04-10T06:55:27.750Z,20.87
2018-04-10T06:58:00.463Z,24.80
2018-04-10T07:00:27.036Z,20.97
2018-04-10T07:02:53.663Z,24.53
2018-04-10T07:05:20.328Z,22.50
2018-04-10T07:07:48.017Z,20.10
2018-04-10T07:10:14.698Z,22.33
2018-04-10T07:12:41.371Z,20.23
2018-04-10T07:15:08.083Z,32.13
2018-04-10T07:17:39.162Z,24.53
2018-04-10T07:20:05.695Z,25.73
2018-04-10T07:22:32.367Z,20.07
2018-04-10T07:24:59.126Z,16.40
2018-04-10T07:27:25.798Z,15.93
2018-04-10T07:29:52.520Z,17.93
2018-04-10T07:32:19.202Z,19.70
2018-04-10T07:34:45.972Z,19.97
2018-04-10T07:37:12.606Z,14.20
2018-04-10T07:39:45.717Z,15.93
2018-04-10T07:42:12.449Z,23.80
2018-04-10T07:44:39.056Z,13.90
2018-04-10T07:47:05.707Z,16.27
2018-04-10T07:49:33.435Z,20.27
2018-04-10T07:52:00.074Z,14.07
2018-04-10T07:54:26.719Z,13.10
2018-04-10T07:56:53.431Z,12.40
2018-04-10T07:59:23.321Z,12.23
2018-04-10T08:01:49.953Z,14.70
2018-04-10T08:04:16.605Z,15.00
2018-04-10T08:06:43.128Z,12.53
2018-04-10T08:09:13.512Z,14.13
2018-04-10T08:11:40.131Z,12.80
2018-04-10T08:14:06.865Z,13.43
2018-04-10T08:16:33.600Z,11.53
2018-04-10T08:19:01.282Z,10.50
2018-04-10T08:21:27.995Z,13.63
2018-04-10T08:23:54.763Z,11.40
2018-04-10T08:26:21.463Z,14.00
2018-04-10T08:28:53.100Z,14.13
2018-04-10T08:31:19.779Z,10.60
2018-04-10T08:33:46.492Z,10.00
2018-04-10T08:36:13.052Z,12.07
2018-04-10T08:38:47.236Z,11.17
2018-04-10T08:41:13.984Z,11.50
2018-04-10T08:43:40.642Z,9.70
2018-04-10T08:46:07.573Z,10.07
2018-04-10T08:48:38.019Z,10.70
2018-04-10T08:51:04.521Z,10.83
2018-04-10T08:53:31.226Z,15.47
2018-04-10T08:55:57.953Z,12.70
2018-04-10T08:58:24.891Z,9.10
2018-04-10T09:00:51.640Z,13.53
2018-04-10T09:03:18.311Z,11.20
2018-04-10T09:05:45.015Z,10.20
2018-04-10T09:08:22.804Z,12.53
2018-04-10T09:10:49.382Z,10.73
2018-04-10T09:13:16.103Z,8.37
2018-04-10T09:15:42.872Z,8.20
2018-04-10T09:18:10.677Z,9.10
2018-04-10T09:20:37.343Z,10.60
2018-04-10T09:23:03.968Z,8.67
2018-04-10T09:25:30.459Z,6.87
2018-04-10T09:28:14.274Z,12.10
2018-04-10T09:30:40.997Z,12.57
2018-04-10T09:33:07.730Z,6.20
2018-04-10T09:35:34.423Z,8.47
2018-04-10T09:38:07.232Z,7.40
2018-04-10T09:40:33.756Z,7.10
2018-04-10T09:43:00.484Z,6.20
2018-04-10T09:45:27.115Z,6.10
2018-04-10T09:47:53.671Z,4.70
2018-04-10T09:50:20.375Z,7.30
2018-04-10T09:52:47.088Z,5.13
2018-04-10T09:55:13.965Z,7.37
2018-04-10T09:57:48.408Z,7.63
2018-04-10T10:00:15.105Z,6.70
2018-04-10T10:02:41.844Z,5.77
2018-04-10T10:05:08.542Z,4.27
2018-04-10T10:07:41.635Z,4.37
2018-04-10T10:10:08.351Z,7.83
2018-04-10T10:12:34.934Z,10.03
2018-04-10T10:15:01.950Z,5.43
2018-04-10T10:17:32.202Z,7.57
2018-04-10T10:19:58.845Z,5.90
2018-04-10T10:22:25.557Z,5.97
2018-04-10T10:24:52.319Z,8.57
2018-04-10T10:27:22.559Z,6.13
2018-04-10T10:29:49.222Z,4.83
2018-04-10T10:32:15.907Z,6.13
2018-04-10T10:34:42.551Z,5.70
2018-04-10T10:37:09.195Z,4.60
2018-04-10T10:39:35.776Z,8.40
2018-04-10T10:42:02.674Z,6.97
2018-04-10T10:44:29.410Z,8.07
2018-04-10T10:46:56.336Z,6.30
2018-04-10T10:49:22.915Z,5.37
2018-04-10T10:51:49.639Z,10.33
2018-04-10T10:54:16.618Z,3.63
2018-04-10T10:56:43.261Z,8.40
2018-04-10T10:59:10.181Z,7.37
2018-04-10T11:01:36.767Z,11.47
2018-04-10T11:04:03.532Z,5.37
2018-04-10T11:06:30.196Z,7.70
2018-04-10T11:08:57.024Z,7.17
2018-04-10T11:11:23.599Z,6.60
2018-04-10T11:13:50.175Z,7.47
2018-04-10T11:16:16.958Z,5.23
2018-04-10T11:18:46.867Z,5.73
2018-04-10T11:21:13.701Z,5.93
2018-04-10T11:23:40.420Z,5.43
2018-04-10T11:26:07.076Z,6.70
2018-04-10T11:28:33.696Z,10.20
2018-04-10T11:31:00.303Z,6.77
2018-04-10T11:33:26.955Z,8.07
2018-04-10T11:35:53.611Z,7.70
2018-04-10T11:38:23.459Z,5.53
2018-04-10T11:40:50.159Z,6.57
2018-04-10T11:43:16.931Z,5.97
2018-04-10T11:45:43.759Z,6.37
2018-04-10T11:48:17.909Z,8.70
2018-04-10T11:50:44.460Z,8.73
2018-04-10T11:53:11.244Z,8.40
2018-04-10T11:55:37.788Z,5.77
2018-04-10T11:58:05.632Z,4.57
2018-04-10T12:00:32.372Z,6.30
2018-04-10T12:02:59.140Z,6.47
2018-04-10T12:05:25.812Z,6.47
2018-04-10T12:08:16.641Z,7.30
2018-04-10T12:10:43.450Z,5.30
2018-04-10T12:13:10.089Z,7.83
2018-04-10T12:15:36.663Z,9.13
2018-04-10T12:18:07.987Z,10.50
2018-04-10T12:20:34.588Z,8.53
2018-04-10T12:23:01.311Z,8.73
2018-04-10T12:25:28.007Z,7.60
2018-04-10T12:28:02.108Z,6.27
2018-04-10T12:30:28.721Z,8.30
2018-04-10T12:32:55.450Z,6.07
2018-04-10T12:35:22.047Z,13.07
2018-04-10T12:37:52.263Z,9.40
2018-04-10T12:40:18.895Z,10.93
2018-04-10T12:42:45.636Z,8.17
2018-04-10T12:45:12.275Z,13.77
2018-04-10T12:47:43.075Z,11.47
2018-04-10T12:50:09.734Z,9.87
2018-04-10T12:52:36.477Z,11.33
2018-04-10T12:55:03.058Z,10.10
2018-04-10T12:57:34.485Z,10.10
2018-04-10T13:00:01.896Z,11.53
2018-04-10T13:02:28.575Z,15.70
2018-04-10T13:04:55.182Z,10.30
2018-04-10T13:07:27.777Z,11.10
2018-04-10T13:09:54.470Z,10.47
2018-04-10T13:12:21.092Z,15.43
2018-04-10T13:14:47.843Z,11.37
2018-04-10T13:17:20.724Z,10.77
2018-04-10T13:19:47.459Z,7.77
2018-04-10T13:22:14.193Z,9.43
2018-04-10T13:24:40.888Z,10.67
2018-04-10T13:27:11.128Z,16.67
2018-04-10T13:29:37.922Z,18.57
2018-04-10T13:32:04.626Z,10.50
2018-04-10T13:34:31.273Z,10.37
2018-04-10T13:37:04.483Z,11.33
2018-04-10T13:39:31.220Z,13.37
2018-04-10T13:41:57.816Z,13.57
2018-04-10T13:44:24.482Z,12.37
2018-04-10T13:46:52.407Z,15.60
2018-04-10T13:49:19.782Z,14.27
2018-04-10T13:51:46.442Z,15.70
2018-04-10T13:54:13.127Z,13.97
2018-04-10T13:56:43.107Z,15.03
2018-04-10T13:59:10.236Z,17.87
2018-04-10T14:01:36.959Z,16.20
2018-04-10T14:04:03.752Z,16.73
2018-04-10T14:06:34.060Z,19.90
2018-04-10T14:09:00.679Z,24.33
2018-04-10T14:11:27.371Z,18.77
2018-04-10T14:13:54.024Z,24.23
2018-04-10T14:16:24.289Z,23.10
2018-04-10T14:18:51.015Z,19.43
2018-04-10T14:21:17.707Z,23.47
2018-04-10T14:23:44.367Z,18.17
2018-04-10T14:26:11.020Z,21.73
2018-04-10T14:28:38.112Z,16.93
2018-04-10T14:31:04.803Z,25.90
2018-04-10T14:33:31.639Z,21.43
2018-04-10T14:35:58.362Z,21.50
2018-04-10T14:38:38.403Z,25.43
2018-04-10T14:41:05.080Z,23.63
2018-04-10T14:43:31.671Z,22.40
2018-04-10T14:45:58.391Z,24.87
2018-04-10T14:48:28.211Z,21.10
2018-04-10T14:50:54.910Z,25.27
2018-04-10T14:53:21.484Z,21.07
2018-04-10T14:55:48.224Z,22.07
2018-04-10T14:58:16.193Z,23.57
2018-04-10T15:00:42.929Z,26.17
2018-04-10T15:03:09.628Z,21.37
2018-04-10T15:05:36.209Z,21.40
2018-04-10T15:08:03.957Z,26.70
2018-04-10T15:10:30.479Z,23.40
2018-04-10T15:12:57.199Z,31.00
2018-04-10T15:15:23.963Z,29.87
2018-04-10T15:17:55.541Z,29.53
2018-04-10T15:20:22.263Z,30.77
2018-04-10T15:22:49.062Z,28.37
2018-04-10T15:25:15.738Z,30.90
2018-04-10T15:27:45.541Z,30.93
2018-04-10T15:30:12.191Z,30.37
2018-04-10T15:32:38.907Z,35.23
2018-04-10T15:35:06.354Z,28.70
2018-04-10T15:37:36.713Z,31.40
2018-04-10T15:40:03.284Z,38.03
2018-04-10T15:42:29.895Z,31.43
2018-04-10T15:44:56.509Z,34.30
2018-04-10T15:47:26.919Z,33.43
2018-04-10T15:49:53.567Z,35.30
2018-04-10T15:52:20.247Z,39.93
2018-04-10T15:54:46.971Z,35.97
2018-04-10T15:57:13.842Z,35.97
2018-04-10T15:59:40.539Z,35.53
2018-04-10T16:02:07.175Z,34.90
2018-04-10T16:04:33.851Z,37.33
2018-04-10T16:07:01.672Z,37.60
2018-04-10T16:09:28.414Z,40.37
2018-04-10T16:11:55.084Z,46.47
2018-04-10T16:14:21.916Z,41.70
2018-04-10T16:16:52.525Z,45.87
2018-04-10T16:19:19.115Z,36.37
2018-04-10T16:21:45.691Z,35.30
2018-04-10T16:24:12.280Z,35.57
2018-04-10T16:26:39.870Z,34.93
2018-04-10T16:29:06.367Z,33.13
2018-04-10T16:31:32.814Z,44.27
2018-04-10T16:33:59.541Z,41.17
2018-04-10T16:36:32.335Z,41.40
2018-04-10T16:38:59.144Z,43.30
2018-04-10T16:41:25.891Z,46.37
2018-04-10T16:43:52.420Z,50.50
2018-04-10T16:46:20.227Z,44.77
2018-04-10T16:48:46.955Z,45.43
2018-04-10T16:51:13.692Z,54.13
2018-04-10T16:53:40.938Z,47.57
2018-04-10T16:56:11.283Z,41.80
2018-04-10T16:58:38.228Z,47.30
2018-04-10T17:01:04.910Z,45.77
2018-04-10T17:03:31.588Z,51.47
2018-04-10T17:05:58.464Z,43.43
2018-04-10T17:08:25.214Z,51.77
2018-04-10T17:10:51.969Z,44.30
2018-04-10T17:13:18.712Z,43.60
2018-04-10T17:15:49.063Z,49.13
2018-04-10T17:18:17.749Z,42.10
2018-04-10T17:20:44.468Z,48.30
2018-04-10T17:23:11.148Z,47.57
2018-04-10T17:25:38.764Z,50.73
2018-04-10T17:28:12.756Z,46.27
2018-04-10T17:30:39.494Z,45.67
2018-04-10T17:33:09.615Z,50.10
2018-04-10T17:35:38.481Z,48.87
2018-04-10T17:38:05.187Z,51.77
2018-04-10T17:40:37.268Z,48.80
2018-04-10T17:43:04.012Z,46.80
2018-04-10T17:45:30.767Z,57.57
2018-04-10T17:47:57.561Z,48.73
2018-04-10T17:50:24.420Z,48.33
2018-04-10T17:52:57.233Z,46.77
2018-04-10T17:55:24.170Z,47.17
2018-04-10T17:57:50.892Z,46.53
2018-04-10T18:00:17.599Z,50.30
2018-04-10T18:02:45.320Z,46.63
2018-04-10T18:05:12.368Z,43.93
2018-04-10T18:07:39.025Z,48.93
2018-04-10T18:10:05.719Z,54.33
2018-04-10T18:12:32.591Z,49.73
2018-04-10T18:14:59.339Z,56.97
2018-04-10T18:17:25.994Z,52.67
2018-04-10T18:19:52.664Z,64.37
2018-04-10T18:22:23.298Z,63.77
2018-04-10T18:24:50.999Z,57.97
2018-04-10T18:27:17.665Z,63.80
2018-04-10T18:29:45.136Z,60.70
2018-04-10T18:32:11.735Z,60.77
2018-04-10T18:34:38.475Z,56.93
2018-04-10T18:37:05.120Z,62.60
2018-04-10T18:39:31.911Z,73.50
2018-04-10T18:41:58.672Z,98.80
2018-04-10T18:44:25.674Z,485.97
2018-04-10T18:46:52.416Z,288.87
2018-04-10T18:49:19.616Z,112.33
2018-04-10T18:51:46.385Z,101.57
2018-04-10T18:54:16.960Z,105.20
2018-04-10T18:56:43.485Z,87.57
2018-04-10T18:59:10.240Z,80.27
2018-04-10T19:01:37.065Z,89.57
2018-04-10T19:04:07.057Z,167.30
2018-04-10T19:06:34.635Z,86.77
2018-04-10T19:09:01.224Z,82.23
2018-04-10T19:11:27.909Z,95.90
2018-04-10T19:14:00.736Z,90.47
2018-04-10T19:16:28.020Z,123.37
2018-04-10T19:18:54.753Z,66.67
2018-04-10T19:21:21.424Z,58.47
2018-04-10T19:23:51.917Z,71.60
2018-04-10T19:26:18.715Z,67.30
2018-04-10T19:28:46.200Z,62.07
2018-04-10T19:31:13.629Z,74.77
2018-04-10T19:33:41.680Z,77.10
2018-04-10T19:36:08.407Z,81.60
2018-04-10T19:38:35.184Z,77.03
2018-04-10T19:41:02.778Z,70.90
2018-04-10T19:43:30.543Z,50.77
2018-04-10T19:45:57.168Z,60.27
2018-04-10T19:48:23.880Z,68.77
2018-04-10T19:50:50.469Z,28.47
2018-04-10T19:53:17.367Z,26.87
2018-04-10T19:55:44.043Z,24.43
2018-04-10T19:58:10.582Z,26.50
2018-04-10T20:00:37.207Z,26.43
2018-04-10T20:03:04.048Z,27.43
2018-04-10T20:05:30.583Z,23.23
2018-04-10T20:07:57.239Z,24.50
2018-04-10T20:10:23.981Z,22.07
2018-04-10T20:12:51.903Z,22.90
2018-04-10T20:15:18.877Z,12.97
2018-04-10T20:17:45.607Z,12.63
2018-04-10T20:20:12.314Z,14.43
2018-04-10T20:22:42.340Z,13.30
2018-04-10T20:25:08.940Z,15.27
2018-04-10T20:27:35.616Z,14.17
2018-04-10T20:30:02.364Z,16.50
2018-04-10T20:32:32.667Z,14.17
2018-04-10T20:34:59.929Z,15.63
2018-04-10T20:37:26.820Z,15.40
2018-04-10T20:39:53.436Z,15.10
2018-04-10T20:42:20.283Z,14.67
2018-04-10T20:44:47.000Z,14.73
2018-04-10T20:47:13.676Z,15.53
2018-04-10T20:49:40.424Z,14.50
2018-04-10T20:52:08.349Z,12.47
2018-04-10T20:54:35.002Z,11.27
2018-04-10T20:57:01.730Z,10.57
2018-04-10T20:59:28.478Z,13.43
2018-04-10T21:01:55.143Z,9.87
2018-04-10T21:04:21.782Z,10.57
2018-04-10T21:06:48.355Z,11.37
2018-04-10T21:09:15.025Z,13.23
2018-04-10T21:11:41.838Z,9.77
2018-04-10T21:14:09.565Z,10.70
2018-04-10T21:16:36.164Z,10.20
2018-04-10T21:19:02.767Z,13.23
2018-04-10T21:21:29.868Z,10.67
2018-04-10T21:23:56.503Z,13.20
2018-04-10T21:26:23.201Z,10.13
2018-04-10T21:28:50.303Z,10.37
2018-04-10T21:31:17.042Z,11.27
2018-04-10T21:33:44.894Z,11.43
2018-04-10T21:36:11.535Z,11.23
2018-04-10T21:38:38.126Z,10.57
2018-04-10T21:41:11.048Z,11.47
2018-04-10T21:43:40.857Z,10.37
2018-04-10T21:46:07.520Z,11.07
2018-04-10T21:48:34.243Z,11.27
2018-04-10T21:51:00.875Z,10.93
2018-04-10T21:53:31.056Z,11.23
2018-04-10T21:55:57.683Z,11.63
2018-04-10T21:58:24.411Z,11.47
2018-04-10T22:00:51.048Z,11.10
2018-04-10T22:03:18.038Z,12.47
2018-04-10T22:05:44.751Z,11.50
2018-04-10T22:08:11.334Z,14.03
2018-04-10T22:10:38.003Z,14.43
2018-04-10T22:13:04.965Z,14.00
2018-04-10T22:15:31.547Z,15.13
2018-04-10T22:17:58.191Z,14.83
2018-04-10T22:20:24.767Z,13.00
2018-04-10T22:22:58.597Z,13.70
2018-04-10T22:25:25.340Z,13.83
2018-04-10T22:27:51.994Z,15.30
2018-04-10T22:30:18.645Z,15.97
2018-04-10T22:32:45.276Z,18.50
2018-04-10T22:35:11.779Z,15.20
2018-04-10T22:37:38.526Z,20.33
2018-04-10T22:40:05.097Z,15.30
2018-04-10T22:42:37.985Z,15.57
2018-04-10T22:45:04.584Z,20.23
2018-04-10T22:47:31.235Z,21.47
2018-04-10T22:49:58.227Z,22.40
2018-04-10T22:52:25.025Z,16.77
2018-04-10T22:54:51.768Z,19.30
2018-04-10T22:57:18.504Z,18.77
2018-04-10T22:59:45.150Z,16.87
2018-04-10T23:02:16.034Z,17.43
2018-04-10T23:04:42.878Z,22.50
2018-04-10T23:07:09.603Z,18.33
2018-04-10T23:09:36.347Z,19.13
2018-04-10T23:12:03.129Z,21.80
2018-04-10T23:14:29.803Z,22.27
2018-04-10T23:16:56.564Z,24.20
2018-04-10T23:19:23.340Z,21.07
2018-04-10T23:21:50.189Z,26.73
2018-04-10T23:24:16.855Z,30.27
2018-04-10T23:26:43.550Z,29.33
2018-04-10T23:29:10.207Z,25.17
2018-04-10T23:31:40.818Z,27.90
2018-04-10T23:34:07.457Z,24.10
2018-04-10T23:36:34.279Z,25.10
2018-04-10T23:39:01.000Z,29.50
2018-04-10T23:41:27.688Z,26.70
2018-04-10T23:43:54.361Z,19.50
2018-04-10T23:46:20.904Z,25.40
2018-04-10T23:48:47.584Z,18.40
2018-04-10T23:51:14.181Z,17.33
2018-04-10T23:53:54.922Z,27.23
2018-04-10T23:56:21.510Z,23.17
2018-04-10T23:58:48.137Z,20.53
